Time;durP1;ratioP1;P1;durP2;ratioP2;P2;SDS_P1;SDS_P2;PMS_P1;PMS_P2;Temp;Humidity;BMP_temperature;BMP_pressure;BME280_temperature;BME280_humidity;BME280_pressure;Samples;Min_cycle;Max_cycle;Signal;HPM_P1;HPM_P2
2023/07/25 00:00:22;;;;;;;11.60;3.60;;;;;;;;;;5011972;28;20431;-77
2023/07/25 00:02:48;;;;;;;11.45;3.92;;;;;;;;;;5017593;28;20049;-76
2023/07/25 00:05:14;;;;;;;11.13;3.60;;;;;;;;;;5017547;28;20743;-74
2023/07/25 00:07:40;;;;;;;7.65;3.83;;;;;;;;;;5014293;28;20045;-76
2023/07/25 00:10:10;;;;;;;6.03;3.80;;;;;;;;;;5018940;28;20049;-75
2023/07/25 00:12:36;;;;;;;8.35;4.05;;;;;;;;;;5000504;28;20060;-77
2023/07/25 00:15:03;;;;;;;11.38;3.53;;;10.30;99.90;;;;;;5017518;28;20056;-76
2023/07/25 00:17:29;;;;;;;7.00;4.40;;;;;;;;;;5017461;28;20084;-76
2023/07/25 00:19:55;;;;;;;9.10;3.83;;;;;;;;;;4999826;28;20418;-75
2023/07/25 00:22:21;;;;;;;9.25;3.83;;;;;;;;;;5016776;28;20065;-75
2023/07/25 00:24:48;;;;;;;9.50;3.55;;;;;;;;;;4999812;28;20045;-75
2023/07/25 00:27:14;;;;;;;10.85;4.00;;;;;;;;;;5019721;28;20510;-76
2023/07/25 00:29:40;;;;;;;8.57;4.50;;;;;;;;;;5021614;28;20057;-77
2023/07/25 00:32:06;;;;;;;10.43;4.10;;;10.50;99.90;;;;;;5021179;28;20057;-76
2023/07/25 00:34:32;;;;;;;9.80;4.03;;;;;;;;;;5020742;28;20056;-77
2023/07/25 00:36:58;;;;;;;7.30;3.53;;;;;;;;;;5021495;28;20913;-75
2023/07/25 00:39:25;;;;;;;10.63;3.92;;;;;;;;;;5021634;28;20049;-77
2023/07/25 00:41:51;;;;;;;8.73;3.83;;;;;;;;;;5015873;28;20053;-78
2023/07/25 00:44:17;;;;;;;8.93;3.42;;;;;;;;;;5021662;28;20052;-77
2023/07/25 00:46:43;;;;;;;9.93;4.13;;;10.70;99.90;;;;;;5021737;28;20793;-77
2023/07/25 00:49:10;;;;;;;9.10;3.80;;;;;;;;;;5021879;28;20064;-76
2023/07/25 00:51:36;;;;;;;10.90;4.00;;;;;;;;;;5004336;28;20053;-77
2023/07/25 00:54:02;;;;;;;10.32;3.25;;;;;;;;;;5022610;28;20053;-76
2023/07/25 00:56:28;;;;;;;8.07;3.75;;;;;;;;;;5006251;28;20041;-76
2023/07/25 00:58:54;;;;;;;8.30;3.83;;;;;;;;;;5018692;28;20448;-76
2023/07/25 01:01:21;;;;;;;11.60;5.95;;;10.10;99.90;;;;;;5017615;28;20711;-76
2023/07/25 01:03:47;;;;;;;12.43;5.00;;;;;;;;;;5020248;28;20053;-77
2023/07/25 01:06:14;;;;;;;13.43;4.18;;;10.00;99.90;;;;;;5022274;28;20049;-77
2023/07/25 01:08:50;;;;;;;8.15;3.85;;;9.90;99.90;;;;;;5015423;28;20049;-77
2023/07/25 01:11:16;;;;;;;7.88;3.30;;;;;;;;;;5015910;28;20503;-77
2023/07/25 01:13:42;;;;;;;11.48;3.83;;;;;;;;;;5020600;28;20057;-78
2023/07/25 01:16:10;;;;;;;7.50;3.35;;;9.70;99.90;;;;;;5019989;28;20136;-77
2023/07/25 01:18:37;;;;;;;7.05;3.60;;;;;;;;;;5020262;28;20049;-77
2023/07/25 01:21:03;;;;;;;9.35;3.45;;;9.70;99.90;;;;;;5017141;28;20057;-78
2023/07/25 01:23:29;;;;;;;10.05;3.63;;;;;;;;;;5018717;28;20056;-77
2023/07/25 01:25:56;;;;;;;6.32;3.72;;;;;;;;;;5019758;28;20057;-76
2023/07/25 01:28:22;;;;;;;9.25;3.58;;;;;;;;;;5019865;28;20099;-77
2023/07/25 01:30:48;;;;;;;9.50;3.35;;;;;;;;;;5020658;28;20176;-78
2023/07/25 01:33:14;;;;;;;9.75;3.65;;;;;;;;;;5020311;28;20192;-78
2023/07/25 01:35:40;;;;;;;12.68;4.38;;;;;;;;;;5019760;28;20046;-78
2023/07/25 01:38:06;;;;;;;17.98;4.22;;;;;;;;;;5019793;28;20058;-78
2023/07/25 01:40:33;;;;;;;5.38;3.40;;;;;;;;;;5019875;28;20064;-78
2023/07/25 01:42:59;;;;;;;12.30;4.07;;;;;;;;;;5019505;28;20049;-78
2023/07/25 01:45:25;;;;;;;8.55;4.13;;;;;;;;;;5018518;28;20053;-78
2023/07/25 01:47:51;;;;;;;9.00;4.70;;;;;;;;;;5019097;28;20045;-78
2023/07/25 01:50:17;;;;;;;12.52;4.20;;;;;;;;;;5018311;28;20092;-78
2023/07/25 01:52:43;;;;;;;9.55;4.38;;;;;;;;;;5018292;28;20049;-79
2023/07/25 01:55:10;;;;;;;9.55;4.35;;;;;;;;;;5001799;28;20081;-78
2023/07/25 01:57:36;;;;;;;12.25;4.32;;;;;;;;;;5019426;28;20041;-78
2023/07/25 02:00:02;;;;;;;7.90;3.95;;;;;;;;;;5020123;28;20811;-78
2023/07/25 02:02:28;;;;;;;12.82;4.50;;;;;;;;;;5020124;28;20049;-78
2023/07/25 02:04:54;;;;;;;15.05;4.80;;;;;;;;;;5019805;28;20648;-78
2023/07/25 02:07:20;;;;;;;11.23;4.43;;;;;;;;;;5017365;28;20049;-78
2023/07/25 02:09:46;;;;;;;10.93;4.57;;;;;;;;;;5018148;28;20434;-79
2023/07/25 02:12:13;;;;;;;11.02;4.93;;;;;;;;;;5003572;28;20301;-78
2023/07/25 02:14:39;;;;;;;13.80;5.05;;;;;;;;;;5019757;28;20089;-78
2023/07/25 02:17:05;;;;;;;16.13;5.72;;;;;;;;;;5013485;28;20056;-79
2023/07/25 02:19:31;;;;;;;10.38;5.15;;;;;;;;;;5017836;28;20067;-79
2023/07/25 02:21:57;;;;;;;13.10;5.78;;;;;;;;;;5020425;28;20053;-78
2023/07/25 02:24:23;;;;;;;11.10;4.68;;;;;;;;;;5005223;28;20049;-78
2023/07/25 02:26:49;;;;;;;10.23;3.97;;;;;;;;;;5021531;28;20057;-79
2023/07/25 02:29:16;;;;;;;10.50;4.80;;;;;;;;;;5021179;28;20132;-78
2023/07/25 02:31:42;;;;;;;11.27;4.00;;;;;;;;;;5004260;28;20049;-76
2023/07/25 02:34:08;;;;;;;14.02;5.30;;;;;;;;;;5021215;28;20053;-76
2023/07/25 02:36:34;;;;;;;12.63;4.72;;;;;;;;;;5021428;28;20053;-78
2023/07/25 02:39:00;;;;;;;9.43;4.72;;;;;;;;;;5020299;28;20585;-78
2023/07/25 02:41:26;;;;;;;9.57;4.15;;;;;;;;;;5020436;28;20562;-79
2023/07/25 02:43:52;;;;;;;10.05;4.45;;;;;;;;;;5020469;28;20049;-77
2023/07/25 02:46:19;;;;;;;10.50;4.47;;;;;;;;;;5003748;28;20057;-77
2023/07/25 02:48:45;;;;;;;14.07;5.05;;;;;;;;;;5018985;28;20438;-78
2023/07/25 02:51:11;;;;;;;13.85;4.30;;;;;;;;;;5019170;28;20107;-78
2023/07/25 02:53:37;;;;;;;15.82;4.50;;;;;;;;;;5020069;28;20057;-78
2023/07/25 02:56:03;;;;;;;13.23;5.20;;;;;;;;;;5003334;28;20057;-78
2023/07/25 02:58:29;;;;;;;13.40;4.50;;;;;;;;;;5019553;28;20041;-78
2023/07/25 03:00:55;;;;;;;8.77;3.92;;;;;;;;;;5019490;28;20528;-77
2023/07/25 03:03:21;;;;;;;12.88;5.72;;;;;;;;;;5002973;28;20064;-78
2023/07/25 03:05:47;;;;;;;10.18;4.15;;;;;;;;;;5002908;28;20056;-79
2023/07/25 03:08:14;;;;;;;7.60;3.65;;;;;;;;;;5002133;28;20085;-78
2023/07/25 03:10:40;;;;;;;13.40;4.07;;;;;;;;;;5017963;28;20805;-78
2023/07/25 03:13:06;;;;;;;10.60;4.22;;;;;;;;;;5018537;28;20863;-77
2023/07/25 03:15:32;;;;;;;10.80;4.65;;;;;;;;;;5018912;28;20064;-79
2023/07/25 03:17:58;;;;;;;11.38;3.42;;;;;;;;;;5018306;28;21041;-78
2023/07/25 03:20:24;;;;;;;11.65;3.63;;;;;;;;;;4994645;28;20148;-77
2023/07/25 03:22:50;;;;;;;11.38;3.60;;;;;;;;;;5016418;28;20053;-77
2023/07/25 03:25:16;;;;;;;10.77;3.42;;;;;;;;;;5017584;28;20053;-78
2023/07/25 03:27:42;;;;;;;10.55;3.00;;;;;;;;;;5012153;28;20053;-77
2023/07/25 03:30:09;;;;;;;10.80;3.42;;;;;;;;;;5017351;28;20081;-77
2023/07/25 03:32:35;;;;;;;15.13;3.95;;;;;;;;;;5017949;28;20053;-77
2023/07/25 03:35:01;;;;;;;8.43;2.90;;;;;;;;;;5018333;28;20222;-78
2023/07/25 03:37:27;;;;;;;7.68;3.35;;;;;;;;;;5017867;28;20518;-77
2023/07/25 03:39:53;;;;;;;10.13;4.15;;;;;;;;;;5013400;28;20057;-77
2023/07/25 03:42:20;;;;;;;10.75;3.63;;;;;;;;;;5018137;28;20319;-79
2023/07/25 03:44:46;;;;;;;15.07;3.88;;;;;;;;;;5017847;28;20060;-78
2023/07/25 03:47:12;;;;;;;12.52;3.60;;;;;;;;;;5016884;28;20691;-78
2023/07/25 03:49:38;;;;;;;15.18;3.60;;;;;;;;;;5001127;28;20486;-78
2023/07/25 03:52:04;;;;;;;7.72;3.42;;;10.90;99.90;;;;;;5017386;28;20057;-77
2023/07/25 03:54:30;;;;;;;11.57;4.20;;;;;;;;;;5017223;28;20487;-78
2023/07/25 03:56:56;;;;;;;9.88;3.13;;;;;;;;;;5017685;28;20085;-78
2023/07/25 03:59:22;;;;;;;12.43;3.95;;;;;;;;;;5001043;28;20045;-78
2023/07/25 04:01:48;;;;;;;8.02;2.88;;;;;;;;;;5016708;28;20053;-78
2023/07/25 04:04:15;;;;;;;13.32;3.72;;;;;;;;;;5017486;28;20618;-77
2023/07/25 04:06:41;;;;;;;8.07;3.55;;;;;;;;;;5017479;28;20060;-77
2023/07/25 04:09:07;;;;;;;7.30;3.15;;;;;;;;;;5017508;28;20087;-77
2023/07/25 04:11:33;;;;;;;13.63;4.03;;;;;;;;;;5016164;28;20100;-78
2023/07/25 04:13:59;;;;;;;8.48;2.83;;;;;;;;;;5016929;28;20501;-77
2023/07/25 04:16:25;;;;;;;12.07;4.50;;;;;;;;;;5016870;28;20043;-77
2023/07/25 04:18:52;;;;;;;7.90;3.72;;;;;;;;;;5008869;28;20050;-77
2023/07/25 04:21:18;;;;;;;11.55;3.95;;;;;;;;;;5016267;28;20129;-76
2023/07/25 04:23:44;;;;;;;8.13;3.15;;;;;;;;;;5016260;28;20491;-77
2023/07/25 04:26:10;;;;;;;8.95;3.40;;;;;;;;;;5015997;28;20099;-77
2023/07/25 04:28:36;;;;;;;11.93;3.15;;;;;;;;;;5016042;28;20053;-76
2023/07/25 04:31:02;;;;;;;9.77;3.85;;;;;;;;;;5015744;28;20037;-78
2023/07/25 04:33:28;;;;;;;14.10;4.88;;;;;;;;;;5015998;28;20176;-77
2023/07/25 04:35:54;;;;;;;8.15;4.47;;;;;;;;;;5015660;28;20057;-76
2023/07/25 04:38:21;;;;;;;6.07;3.55;;;;;;;;;;5015554;28;20338;-75
2023/07/25 04:40:47;;;;;;;16.55;4.40;;;;;;;;;;4999733;28;20056;-78
2023/07/25 04:43:13;;;;;;;10.23;2.95;;;;;;;;;;5017023;28;20495;-76
2023/07/25 04:45:39;;;;;;;10.82;3.47;;;;;;;;;;5016755;28;20152;-77
2023/07/25 04:48:05;;;;;;;10.85;3.10;;;;;;;;;;5017535;28;20081;-78
2023/07/25 04:50:31;;;;;;;11.27;3.42;;;;;;;;;;5016868;28;20495;-76
2023/07/25 04:52:57;;;;;;;10.77;3.72;;;;;;;;;;5017160;28;20112;-76
2023/07/25 04:55:23;;;;;;;8.52;3.60;;;;;;;;;;5017075;28;20499;-76
2023/07/25 04:57:50;;;;;;;14.25;4.65;;;12.60;99.90;;;;;;5017249;28;20128;-76
2023/07/25 05:00:16;;;;;;;9.93;3.35;;;;;;;;;;5017102;28;20810;-75
2023/07/25 05:02:42;;;;;;;8.95;4.10;;;;;;;;;;5015539;28;20403;-76
2023/07/25 05:05:09;;;;;;;11.52;4.20;;;;;;;;;;5015296;28;20053;-75
2023/07/25 05:07:35;;;;;;;9.68;3.58;;;;;;;;;;4999092;28;20057;-77
2023/07/25 05:10:01;;;;;;;16.02;4.10;;;;;;;;;;5015835;28;20103;-77
2023/07/25 05:12:27;;;;;;;11.40;3.40;;;;;;;;;;5016559;28;20077;-77
2023/07/25 05:14:53;;;;;;;10.25;3.05;;;;;;;;;;5019723;28;20081;-76
2023/07/25 05:17:19;;;;;;;8.23;3.15;;;;;;;;;;5003858;28;20084;-76
2023/07/25 05:19:45;;;;;;;8.23;3.30;;;;;;;;;;5001514;28;20199;-76
2023/07/25 05:22:11;;;;;;;8.48;2.92;;;;;;;;;;4996488;28;21050;-76
2023/07/25 05:24:37;;;;;;;10.00;3.10;;;;;;;;;;5018780;28;20057;-76
2023/07/25 05:27:03;;;;;;;9.50;2.83;;;;;;;;;;5019169;28;20060;-75
2023/07/25 05:29:30;;;;;;;7.80;2.70;;;;;;;;;;5021132;28;20053;-78
2023/07/25 05:31:56;;;;;;;8.32;2.72;;;;;;;;;;5020729;28;20935;-78
2023/07/25 05:34:22;;;;;;;8.38;2.92;;;;;;;;;;5021154;28;20045;-76
2023/07/25 05:36:48;;;;;;;11.52;3.03;;;;;;;;;;5020479;28;20068;-77
2023/07/25 05:39:14;;;;;;;8.80;2.70;;;;;;;;;;5021311;28;20076;-75
2023/07/25 05:41:42;;;;;;;12.82;2.95;;;;;;;;;;5020781;28;20058;-74
2023/07/25 05:44:09;;;;;;;8.20;2.15;;;;;;;;;;5015908;28;20052;-75
2023/07/25 05:46:35;;;;;;;6.22;1.80;;;;;;;;;;5020408;28;20751;-76
2023/07/25 05:49:02;;;;;;;12.43;2.00;;;;;;;;;;5021342;28;20061;-77
2023/07/25 05:51:28;;;;;;;7.63;1.85;;;;;;;;;;5047150;28;20087;-76
2023/07/25 05:53:54;;;;;;;11.30;1.40;;;;;;;;;;5021078;28;20247;-76
2023/07/25 05:56:20;;;;;;;5.93;1.50;;;;;;;;;;5021474;28;20061;-75
2023/07/25 05:58:46;;;;;;;4.07;1.23;;;;;;;;;;5021386;28;20072;-76
2023/07/25 06:01:12;;;;;;;8.23;1.80;;;;;;;;;;5020911;28;20118;-80
2023/07/25 06:03:39;;;;;;;5.90;1.00;;;;;;;;;;5021177;28;20064;-75
2023/07/25 06:06:05;;;;;;;9.82;1.42;;;;;;;;;;5020451;28;20103;-75
2023/07/25 06:08:31;;;;;;;6.63;1.05;;;;;;;;;;5014587;28;20125;-78
2023/07/25 06:10:57;;;;;;;4.18;0.88;;;;;;;;;;5003677;28;20148;-77
2023/07/25 06:13:24;;;;;;;5.88;1.42;;;;;;;;;;5020393;28;20053;-76
2023/07/25 06:15:50;;;;;;;2.70;0.50;;;;;;;;;;5002091;28;20530;-78
2023/07/25 06:18:16;;;;;;;5.78;0.70;;;;;;;;;;5020935;28;20431;-77
2023/07/25 06:20:42;;;;;;;7.22;0.80;;;;;;;;;;5004333;28;20051;-77
2023/07/25 06:23:08;;;;;;;3.55;0.93;;;;;;;;;;5018598;28;20050;-77
2023/07/25 06:25:35;;;;;;;6.03;0.40;;;;;;;;;;5019711;28;20057;-79
2023/07/25 06:28:01;;;;;;;4.60;0.40;;;;;;;;;;5021460;28;20045;-78
2023/07/25 06:30:27;;;;;;;5.07;0.70;;;;;;;;;;5021148;28;20049;-76
2023/07/25 06:32:53;;;;;;;4.32;1.30;;;;;;;;;;5004749;28;20053;-78
2023/07/25 06:35:19;;;;;;;2.85;0.50;;;;;;;;;;5020890;28;20049;-76
2023/07/25 06:37:46;;;;;;;6.05;0.45;;;;;;;;;;5019880;28;20057;-76
2023/07/25 06:40:12;;;;;;;6.25;0.50;;;;;;;;;;5020456;28;20364;-79
2023/07/25 06:42:38;;;;;;;4.53;0.40;;;;;;;;;;5017260;28;20944;-80
2023/07/25 06:45:04;;;;;;;6.80;0.68;;;;;;;;;;5018986;28;20060;-76
2023/07/25 06:47:30;;;;;;;6.50;0.60;;;;;;;;;;5004040;28;20095;-82
2023/07/25 06:49:58;;;;;;;4.82;0.40;;;;;;;;;;5019984;28;20088;-79
2023/07/25 06:52:24;;;;;;;5.97;0.65;;;;;;;;;;5003139;28;20049;-78
2023/07/25 06:54:50;;;;;;;3.72;0.30;;;;;;;;;;5019866;28;20138;-79
2023/07/25 06:57:16;;;;;;;7.82;1.15;;;;;;;;;;5020101;28;20049;-80
2023/07/25 06:59:42;;;;;;;5.93;0.55;;;;;;;;;;5020265;28;20549;-77
2023/07/25 07:02:08;;;;;;;6.50;0.50;;;;;;;;;;5020308;28;20049;-77
2023/07/25 07:04:34;;;;;;;9.60;0.70;;;;;;;;;;5018435;28;20055;-81
2023/07/25 07:07:00;;;;;;;2.97;0.20;;;;;;;;;;5020087;28;20144;-84
2023/07/25 07:09:26;;;;;;;3.45;0.90;;;;;;;;;;5020326;28;20088;-81
2023/07/25 07:11:53;;;;;;;3.42;1.10;;;;;;;;;;5018749;28;20053;-78
2023/07/25 07:14:20;;;;;;;6.32;0.85;;;;;;;;;;5019923;28;20053;-75
2023/07/25 07:16:46;;;;;;;5.15;0.40;;;;;;;;;;5015613;28;20104;-77
2023/07/25 07:19:12;;;;;;;6.35;0.50;;;;;;;;;;5020507;28;20049;-77
2023/07/25 07:21:38;;;;;;;6.25;0.50;;;;;;;;;;5003799;28;20045;-84
2023/07/25 07:24:05;;;;;;;6.15;0.40;;;;;;;;;;5003963;28;20057;-78
2023/07/25 07:26:31;;;;;;;6.97;0.25;;;;;;;;;;5015915;28;20073;-80
2023/07/25 07:28:57;;;;;;;2.13;0.10;;;;;;;;;;4998734;28;20056;-81
2023/07/25 07:31:25;;;;;;;3.35;0.20;;;;;;;;;;5019109;28;20103;-79
2023/07/25 07:33:51;;;;;;;4.32;0.20;;;;;;;;;;5017978;28;20124;-78
2023/07/25 07:36:17;;;;;;;3.45;0.20;;;;;;;;;;5018820;28;20049;-79
2023/07/25 07:38:43;;;;;;;2.38;0.20;;;;;;;;;;5019936;28;20527;-81
2023/07/25 07:41:09;;;;;;;4.35;0.73;;;;;;;;;;5016258;28;20115;-79
2023/07/25 07:43:35;;;;;;;3.95;0.30;;;;;;;;;;5016514;28;20056;-82
2023/07/25 07:46:01;;;;;;;2.40;0.20;;;;;;;;;;5012755;28;20417;-80
2023/07/25 07:48:27;;;;;;;4.30;0.20;;;31.70;58.80;;;;;;5011515;28;20415;-80
2023/07/25 07:50:53;;;;;;;1.88;0.20;;;;;;;;;;4992370;28;20050;-77
2023/07/25 07:53:19;;;;;;;2.70;0.20;;;33.10;60.20;;;;;;5019578;28;20055;-76
2023/07/25 07:55:45;;;;;;;2.67;0.40;;;;;;;;;;4997833;28;20645;-85
2023/07/25 07:58:11;;;;;;;3.90;0.20;;;;;;;;;;5003289;28;20511;-81
2023/07/25 08:00:37;;;;;;;2.60;0.20;;;;;;;;;;5015850;28;20049;-79
2023/07/25 08:03:03;;;;;;;2.03;0.10;;;;;;;;;;5014298;28;20520;-80
2023/07/25 08:05:29;;;;;;;2.30;0.20;;;34.50;54.10;;;;;;5014447;28;20049;-77
2023/07/25 08:07:55;;;;;;;4.28;0.20;;;;;;;;;;5011073;28;20068;-78
2023/07/25 08:10:24;;;;;;;2.15;0.10;;;34.90;53.90;;;;;;5004235;28;20057;-78
2023/07/25 08:12:50;;;;;;;1.73;0.30;;;34.90;57.10;;;;;;5003339;28;20053;-84
2023/07/25 08:15:16;;;;;;;2.53;0.28;;;;;;;;;;5017022;28;20458;-85
2023/07/25 08:17:42;;;;;;;3.08;0.65;;;;;;;;;;5018726;28;20045;-81
2023/07/25 08:20:09;;;;;;;1.63;0.10;;;;;;;;;;5002943;28;20096;-79
2023/07/25 08:22:35;;;;;;;2.90;0.73;;;;;;;;;;5002559;28;20038;-82
2023/07/25 08:25:01;;;;;;;2.05;0.25;;;;;;;;;;5020797;28;20049;-77
2023/07/25 08:27:27;;;;;;;2.55;0.10;;;;;;;;;;5015618;28;20053;-86
2023/07/25 08:29:53;;;;;;;5.88;0.30;;;;;;;;;;5021619;28;20169;-78
2023/07/25 08:32:19;;;;;;;4.68;0.20;;;;;;;;;;5016599;28;20045;-78
2023/07/25 08:34:46;;;;;;;4.18;0.17;;;;;;;;;;5020041;28;20057;-79
2023/07/25 08:37:12;;;;;;;2.08;0.15;;;;;;;;;;5004194;28;20063;-80
2023/07/25 08:39:38;;;;;;;2.53;0.30;;;;;;;;;;5015946;28;20096;-84
2023/07/25 08:42:06;;;;;;;1.45;0.52;;;33.40;50.20;;;;;;5021393;28;20057;-78
2023/07/25 08:44:34;;;;;;;1.67;0.30;;;33.30;48.70;;;;;;5018664;28;20053;-81
2023/07/25 08:47:05;;;;;;;4.05;0.25;;;33.00;54.00;;;;;;5018942;28;20075;-82
2023/07/25 08:49:35;;;;;;;4.43;0.20;;;32.90;49.50;;;;;;5051996;28;20046;-81
2023/07/25 08:52:03;;;;;;;2.38;0.30;;;32.10;49.30;;;;;;5022069;28;20056;-82
2023/07/25 08:54:29;;;;;;;1.70;0.20;;;;;;;;;;5022984;28;20046;-78
2023/07/25 08:56:55;;;;;;;2.65;0.20;;;;;;;;;;5020609;28;20115;-81
2023/07/25 08:59:22;;;;;;;2.95;0.20;;;31.10;52.30;;;;;;5022575;28;20077;-81
2023/07/25 09:01:48;;;;;;;2.28;0.20;;;;;;;;;;5022266;28;20120;-81
2023/07/25 09:04:14;;;;;;;2.00;0.40;;;29.10;51.80;;;;;;5023200;28;20515;-86
2023/07/25 09:06:40;;;;;;;3.25;0.20;;;29.10;54.50;;;;;;5022298;28;20057;-83
2023/07/25 09:09:07;;;;;;;5.57;0.20;;;29.70;53.40;;;;;;5055936;28;20053;-80
2023/07/25 09:11:34;;;;;;;2.28;0.20;;;;;;;;;;5020189;28;20765;-80
2023/07/25 09:14:01;;;;;;;2.38;0.35;;;29.70;60.90;;;;;;5021511;28;20088;-79
2023/07/25 09:16:27;;;;;;;3.60;0.63;;;30.00;63.60;;;;;;5000049;28;20667;-79
2023/07/25 09:18:53;;;;;;;2.60;0.20;;;;;;;;;;5022875;28;20065;-81
2023/07/25 09:21:19;;;;;;;2.97;0.10;;;28.00;53.10;;;;;;5018322;28;20033;-79
2023/07/25 09:24:00;;;;;;;2.90;0.20;;;26.70;54.70;;;;;;5021344;28;20060;-78
2023/07/25 09:26:30;;;;;;;2.80;0.17;;;26.10;56.20;;;;;;5018885;28;20054;-79
2023/07/25 09:28:57;;;;;;;3.10;0.20;;;27.00;56.10;;;;;;5021016;28;20045;-80
2023/07/25 09:31:24;;;;;;;2.22;0.10;;;26.40;54.50;;;;;;5020542;28;20053;-78
2023/07/25 09:33:52;;;;;;;4.28;0.85;;;29.70;55.70;;;;;;5020197;28;20132;-80
2023/07/25 09:36:18;;;;;;;1.98;0.30;;;30.70;54.00;;;;;;5021192;28;20049;-76
2023/07/25 09:38:54;;;;;;;4.95;0.28;;;31.30;53.80;;;;;;5020694;28;20637;-81
2023/07/25 09:41:22;;;;;;;2.15;0.20;;;31.40;52.40;;;;;;5021515;28;20064;-78
2023/07/25 09:43:49;;;;;;;2.50;0.20;;;31.90;54.10;;;;;;5004569;28;20053;-80
2023/07/25 09:46:14;;;;;;;4.75;0.20;;;32.40;57.70;;;;;;5021160;28;20065;-79
2023/07/25 09:48:45;;;;;;;2.00;0.30;;;33.00;52.40;;;;;;5020737;28;20740;-80
2023/07/25 09:51:14;;;;;;;1.50;0.10;;;33.50;49.50;;;;;;5021716;28;20812;-83
2023/07/25 09:53:44;;;;;;;2.15;0.40;;;33.20;48.80;;;;;;5004348;28;20050;-78
2023/07/25 09:56:11;;;;;;;3.33;0.50;;;;;;;;;;5020949;28;20053;-81
2023/07/25 09:58:37;;;;;;;1.85;0.10;;;;;;;;;;5016124;28;20552;-81
2023/07/25 10:01:04;;;;;;;3.70;0.30;;;29.80;54.90;;;;;;5016623;28;20046;-79
2023/07/25 10:03:30;;;;;;;5.65;0.45;;;28.70;51.20;;;;;;5004269;28;20119;-81
2023/07/25 10:05:57;;;;;;;2.05;0.25;;;27.90;52.90;;;;;;5020245;28;20041;-79
2023/07/25 10:08:25;;;;;;;5.10;0.20;;;28.10;54.80;;;;;;5020126;28;20056;-80
2023/07/25 10:10:54;;;;;;;1.10;0.10;;;28.90;54.00;;;;;;5019397;28;20060;-80
2023/07/25 10:13:20;;;;;;;4.38;0.30;;;;;;;;;;5048258;28;20117;-82
2023/07/25 10:15:46;;;;;;;2.28;0.20;;;;;;;;;;5020626;28;20056;-80
2023/07/25 10:18:22;;;;;;;2.70;0.10;;;30.60;52.30;;;;;;5018854;28;20076;-80
2023/07/25 10:20:49;;;;;;;2.58;0.30;;;30.10;51.80;;;;;;5019824;28;20129;-78
2023/07/25 10:23:15;;;;;;;2.70;0.30;;;;;;;;;;5020020;28;20107;-83
2023/07/25 10:25:41;;;;;;;2.35;0.20;;;;;;;;;;5019871;28;20072;-83
2023/07/25 10:28:07;;;;;;;2.30;0.17;;;30.20;53.90;;;;;;5019352;28;20499;-85
2023/07/25 10:30:42;;;;;;;1.33;0.10;;;30.50;53.10;;;;;;5020396;28;20175;-78
2023/07/25 10:33:09;;;;;;;2.33;0.20;;;30.10;51.60;;;;;;5019968;28;20053;-79
2023/07/25 10:35:49;;;;;;;2.28;0.20;;;29.40;52.10;;;;;;5002827;28;20057;-80
2023/07/25 10:38:22;;;;;;;1.43;0.23;;;28.90;53.40;;;;;;5018327;28;20140;-80
2023/07/25 10:40:52;;;;;;;3.03;0.52;;;28.20;55.40;;;;;;5018108;28;20072;-79
2023/07/25 10:43:20;;;;;;;4.95;0.45;;;27.20;56.20;;;;;;5017605;28;20057;-78
2023/07/25 10:45:48;;;;;;;4.40;0.20;;;26.70;55.40;;;;;;5051800;28;20042;-78
2023/07/25 10:48:43;;;;;;;4.03;0.20;;;26.00;56.20;;;;;;5020231;28;20049;-81
2023/07/25 10:51:09;;;;;;;1.98;0.13;;;;;;;;;;5014863;28;20088;-80
2023/07/25 10:53:35;;;;;;;2.80;0.43;;;25.00;58.20;;;;;;5019042;28;20060;-81
2023/07/25 10:56:04;;;;;;;2.40;0.20;;;24.90;59.10;;;;;;5019600;28;20053;-78
2023/07/25 10:58:34;;;;;;;2.65;0.30;;;24.90;60.00;;;;;;5017458;28;20053;-77
2023/07/25 11:01:01;;;;;;;1.92;0.28;;;24.70;60.50;;;;;;5019345;28;20049;-81
2023/07/25 11:03:35;;;;;;;2.28;0.32;;;24.40;60.20;;;;;;5051696;28;20122;-80
2023/07/25 11:06:08;;;;;;;3.47;0.40;;;;;;;;;;5018137;28;20141;-81
2023/07/25 11:08:35;;;;;;;2.55;0.40;;;24.10;61.80;;;;;;5018359;28;20053;-81
2023/07/25 11:11:12;;;;;;;6.65;0.30;;;23.70;62.60;;;;;;5017763;28;20126;-80
2023/07/25 11:13:41;;;;;;;2.45;0.38;;;23.70;60.90;;;;;;5017407;28;20690;-83
2023/07/25 11:16:09;;;;;;;4.32;0.47;;;23.70;61.40;;;;;;5000987;28;20138;-83
2023/07/25 11:18:37;;;;;;;3.78;0.20;;;;;;;;;;5003372;28;20060;-82
2023/07/25 11:21:05;;;;;;;4.18;0.50;;;23.80;63.00;;;;;;5019055;28;20136;-84
2023/07/25 11:23:32;;;;;;;4.18;0.52;;;23.60;71.40;;;;;;5018102;28;20131;-84
2023/07/25 11:25:59;;;;;;;5.40;0.40;;;23.40;64.60;;;;;;5001090;28;20115;-84
2023/07/25 11:28:26;;;;;;;3.42;0.32;;;23.20;64.10;;;;;;4999937;28;20830;-83
2023/07/25 11:30:52;;;;;;;5.10;0.82;;;23.20;68.90;;;;;;5019379;28;20711;-82
2023/07/25 11:33:19;;;;;;;4.38;0.20;;;23.00;65.10;;;;;;5019363;28;20049;-84
2023/07/25 11:35:45;;;;;;;3.40;0.20;;;;;;;;;;5018938;28;20049;-81
2023/07/25 11:38:12;;;;;;;7.43;0.20;;;;;;;;;;5018514;28;20057;-82
2023/07/25 11:40:40;;;;;;;4.47;0.47;;;22.70;64.60;;;;;;5002494;28;20064;-81
2023/07/25 11:43:13;;;;;;;4.10;0.20;;;22.60;65.10;;;;;;5017400;28;20833;-83
2023/07/25 11:45:39;;;;;;;5.68;0.30;;;;;;;;;;5017327;28;20052;-82
2023/07/25 11:48:08;;;;;;;3.08;0.43;;;;;;;;;;5018036;28;20049;-81
2023/07/25 11:50:35;;;;;;;2.63;0.25;;;;;;;;;;5019066;28;20053;-82
2023/07/25 11:53:02;;;;;;;2.72;0.28;;;;;;;;;;5018971;28;20142;-85
2023/07/25 11:55:28;;;;;;;5.35;1.27;;;;;;;;;;5018623;28;20056;-83
2023/07/25 11:57:54;;;;;;;4.65;0.30;;;;;;;;;;5018444;28;20060;-83
2023/07/25 12:00:22;;;;;;;4.75;0.20;;;21.40;65.80;;;;;;5016884;28;20128;-79
2023/07/25 12:02:48;;;;;;;5.07;0.50;;;;;;;;;;5017038;28;20103;-82
2023/07/25 12:05:34;;;;;;;4.00;0.30;;;22.30;65.70;;;;;;5017985;28;20057;-84
2023/07/25 12:08:02;;;;;;;5.10;0.50;;;;;;;;;;4999671;28;20675;-78
2023/07/25 12:10:33;;;;;;;7.45;0.30;;;22.40;66.00;;;;;;5017978;28;20060;-81
2023/07/25 12:13:03;;;;;;;2.03;0.67;;;22.40;66.00;;;;;;5018060;28;20045;-79
2023/07/25 12:15:43;;;;;;;6.00;0.20;;;;;;;;;;5017004;28;20065;-84
2023/07/25 12:18:28;;;;;;;3.47;0.45;;;22.50;66.20;;;;;;5014761;28;20141;-84
2023/07/25 12:20:56;;;;;;;1.10;0.20;;;22.60;65.30;;;;;;5014990;28;20084;-81
2023/07/25 12:23:38;;;;;;;4.18;0.55;;;22.40;65.00;;;;;;5021416;28;20089;-84
2023/07/25 12:26:05;;;;;;;3.42;0.28;;;22.30;65.70;;;;;;5002948;28;20128;-80
2023/07/25 12:28:43;;;;;;;3.45;0.20;;;22.10;66.20;;;;;;5036835;28;20053;-82
2023/07/25 12:31:09;;;;;;;2.28;0.20;;;;;;;;;;5020137;28;20042;-82
2023/07/25 12:33:35;;;;;;;4.50;0.28;;;22.10;67.50;;;;;;5003322;28;20049;-80
2023/07/25 12:36:01;;;;;;;3.33;0.35;;;;;;;;;;5018669;28;20080;-85
2023/07/25 12:38:28;;;;;;;1.85;0.20;;;;;;;;;;5020519;28;20054;-85
2023/07/25 12:40:54;;;;;;;5.28;0.57;;;;;;;;;;5021167;28;20058;-82
2023/07/25 12:43:20;;;;;;;2.53;0.55;;;;;;;;;;5005171;28;20046;-86
2023/07/25 12:45:46;;;;;;;3.03;0.25;;;;;;;;;;5021849;28;20803;-82
2023/07/25 12:48:13;;;;;;;2.90;0.17;;;;;;;;;;5020746;28;20059;-82
2023/07/25 12:50:39;;;;;;;5.15;0.10;;;;;;;;;;5021897;28;20063;-80
2023/07/25 12:53:06;;;;;;;4.03;0.10;;;;;;;;;;5022330;28;20055;-78
2023/07/25 12:55:32;;;;;;;1.35;0.10;;;;;;;;;;5022856;28;20115;-83
2023/07/25 12:57:58;;;;;;;1.00;0.30;;;;;;;;;;5022995;28;20049;-79
2023/07/25 13:00:24;;;;;;;2.50;0.43;;;;;;;;;;5024080;28;20068;-78
2023/07/25 13:02:51;;;;;;;4.60;0.10;;;;;;;;;;5024043;28;20050;-80
2023/07/25 13:05:17;;;;;;;3.22;0.20;;;;;;;;;;5017326;28;20052;-78
2023/07/25 13:07:43;;;;;;;3.85;0.10;;;;;;;;;;5005293;28;20103;-80
2023/07/25 13:10:10;;;;;;;4.53;0.15;;;;;;;;;;5021904;28;20072;-78
2023/07/25 13:12:37;;;;;;;1.48;0.40;;;22.60;64.30;;;;;;5016904;28;20064;-82
2023/07/25 13:15:04;;;;;;;2.72;0.20;;;22.40;64.90;;;;;;5021309;28;20053;-80
2023/07/25 13:17:31;;;;;;;1.73;0.10;;;;;;;;;;5020865;28;20123;-83
2023/07/25 13:19:57;;;;;;;2.47;0.20;;;;;;;;;;5021473;28;20053;-83
2023/07/25 13:22:23;;;;;;;2.42;0.20;;;;;;;;;;5017789;28;20049;-83
2023/07/25 13:24:51;;;;;;;1.27;0.10;;;;;;;;;;5020904;28;20057;-86
2023/07/25 13:27:18;;;;;;;3.35;0.10;;;;;;;;;;5019595;28;20542;-82
2023/07/25 13:29:44;;;;;;;1.65;0.10;;;;;;;;;;5004635;28;20049;-81
2023/07/25 13:32:10;;;;;;;3.40;0.20;;;;;;;;;;5022573;28;20099;-84
2023/07/25 13:34:36;;;;;;;3.17;0.32;;;;;;;;;;5020816;28;20048;-81
2023/07/25 13:37:02;;;;;;;2.67;0.10;;;;;;;;;;5020980;28;20057;-82
2023/07/25 13:39:29;;;;;;;2.58;0.10;;;;;;;;;;5036245;28;20053;-81
2023/07/25 13:41:55;;;;;;;5.57;0.40;;;;;;;;;;5020250;28;20065;-85
2023/07/25 13:44:21;;;;;;;3.80;0.20;;;;;;;;;;5021661;28;20049;-84
2023/07/25 13:46:50;;;;;;;4.05;0.40;;;;;;;;;;5021563;28;20124;-83
2023/07/25 13:49:16;;;;;;;1.90;0.30;;;;;;;;;;5022212;28;20057;-81
2023/07/25 13:51:42;;;;;;;3.90;0.22;;;;;;;;;;5021543;28;20045;-82
2023/07/25 13:54:08;;;;;;;1.83;0.17;;;;;;;;;;5021125;28;20060;-82
2023/07/25 13:56:34;;;;;;;6.53;0.30;;;;;;;;;;5021208;28;20081;-79
2023/07/25 13:59:00;;;;;;;5.90;0.20;;;;;;;;;;5021859;28;20050;-77
2023/07/25 14:01:27;;;;;;;2.35;0.20;;;;;;;;;;5020344;28;20423;-81
2023/07/25 14:03:53;;;;;;;2.22;0.73;;;;;;;;;;5020355;28;20057;-79
2023/07/25 14:06:19;;;;;;;1.65;0.20;;;;;;;;;;5019701;28;20045;-79